Time;durP1;ratioP1;P1;durP2;ratioP2;P2;SDS_P1;SDS_P2;PMS_P1;PMS_P2;Temp;Humidity;BMP_temperature;BMP_pressure;BME280_temperature;BME280_humidity;BME280_pressure;Samples;Min_cycle;Max_cycle;Signal;HPM_P1;HPM_P2
2022/02/10 00:13:51;;;;;;;11.60;8.95;;;10.90;88.90;;;;;;5065368;28;20032;-77
2022/02/10 00:16:51;;;;;;;13.77;9.52;;;10.90;89.40;;;;;;5053335;28;20079;-76
2022/02/10 00:35:30;;;;;;;12.23;9.32;;;10.90;88.90;;;;;;5059805;28;20153;-76
2022/02/10 00:37:59;;;;;;;12.38;9.10;;;10.90;88.90;;;;;;5062748;28;20572;-75
2022/02/10 00:40:30;;;;;;;13.30;9.40;;;10.90;88.80;;;;;;5065685;28;20108;-77
2022/02/10 00:43:00;;;;;;;13.43;9.75;;;10.90;88.80;;;;;;5067868;28;20021;-77
2022/02/10 00:45:29;;;;;;;12.50;8.75;;;10.80;88.70;;;;;;5053224;28;20063;-77
2022/02/10 00:48:01;;;;;;;11.43;8.55;;;10.90;88.80;;;;;;5052869;28;20060;-75
2022/02/10 00:50:29;;;;;;;13.65;9.15;;;10.90;88.80;;;;;;5052980;28;20024;-76
2022/02/10 00:53:08;;;;;;;12.73;9.18;;;10.90;88.80;;;;;;5043262;28;20024;-75
2022/02/10 00:55:37;;;;;;;12.35;8.88;;;10.90;88.80;;;;;;5044266;28;20366;-76
2022/02/10 00:58:06;;;;;;;12.13;8.82;;;10.90;88.80;;;;;;5059060;28;20173;-76
2022/02/10 01:14:19;;;;;;;13.63;8.88;;;10.90;88.80;;;;;;5064631;28;20025;-76
2022/02/10 01:30:15;;;;;;;12.00;8.77;;;10.90;88.70;;;;;;5071980;28;20444;-77
2022/02/10 01:32:44;;;;;;;11.75;8.40;;;10.90;88.70;;;;;;5060357;28;20021;-76
2022/02/10 01:35:13;;;;;;;11.38;8.45;;;10.80;88.70;;;;;;5034727;28;20021;-76
2022/02/10 01:37:39;;;;;;;11.90;8.95;;;10.90;88.80;;;;;;5050768;28;20073;-77
2022/02/10 01:40:12;;;;;;;12.50;9.05;;;10.90;88.80;;;;;;5072549;28;20032;-75
2022/02/10 02:04:21;;;;;;;13.17;8.90;;;10.90;88.70;;;;;;5072691;28;20032;-76
2022/02/10 02:06:49;;;;;;;11.95;8.55;;;10.80;88.70;;;;;;5044301;28;20024;-76
2022/02/10 02:09:16;;;;;;;12.27;8.50;;;10.80;88.60;;;;;;5033576;28;20951;-77
2022/02/10 02:11:44;;;;;;;15.63;8.80;;;10.80;88.70;;;;;;5065098;28;20025;-76
2022/02/10 02:14:14;;;;;;;12.20;8.80;;;10.80;88.70;;;;;;5054752;28;20033;-76
2022/02/10 02:16:48;;;;;;;11.63;8.38;;;10.80;88.70;;;;;;5053531;28;20086;-75
2022/02/10 02:19:14;;;;;;;11.73;8.48;;;10.80;88.60;;;;;;5052852;28;20025;-77
2022/02/10 02:21:42;;;;;;;12.93;8.15;;;10.90;88.70;;;;;;5071893;28;20103;-76
2022/02/10 02:24:15;;;;;;;11.23;8.50;;;10.90;88.60;;;;;;5070886;28;20465;-78
2022/02/10 02:26:45;;;;;;;11.15;7.88;;;10.90;88.60;;;;;;5050707;28;20021;-76
2022/02/10 02:29:13;;;;;;;11.48;8.50;;;10.90;88.70;;;;;;5038287;28;20016;-76
2022/02/10 02:31:48;;;;;;;11.27;8.13;;;10.90;88.60;;;;;;5070656;28;20025;-79
2022/02/10 03:06:36;;;;;;;12.60;8.40;;;10.90;88.60;;;;;;5070841;28;20020;-76
2022/02/10 03:09:08;;;;;;;11.43;8.00;;;10.90;88.50;;;;;;5052523;28;20020;-76
2022/02/10 03:11:39;;;;;;;10.30;7.47;;;10.90;88.60;;;;;;5071368;28;20486;-76
2022/02/10 03:14:11;;;;;;;11.93;7.43;;;10.80;88.50;;;;;;5052420;28;20412;-77
2022/02/10 04:00:33;;;;;;;10.70;6.95;;;10.90;88.50;;;;;;5072931;28;20123;-76
2022/02/10 04:16:21;;;;;;;10.13;7.07;;;10.90;88.50;;;;;;5052778;28;20032;-77
2022/02/10 04:23:43;;;;;;;9.80;7.05;;;10.80;88.40;;;;;;5052275;28;20020;-75
2022/02/10 04:29:14;;;;;;;11.40;6.88;;;10.80;88.40;;;;;;5060120;28;20021;-74
2022/02/10 04:32:07;;;;;;;10.63;6.63;;;10.80;88.40;;;;;;5072213;28;20039;-76
2022/02/10 04:54:36;;;;;;;10.50;6.72;;;10.80;88.30;;;;;;5052200;28;20152;-74
2022/02/10 05:18:09;;;;;;;9.98;7.07;;;10.80;88.50;;;;;;5071581;28;20079;-74
2022/02/10 05:34:08;;;;;;;10.88;6.85;;;10.80;88.30;;;;;;5026259;28;20040;-76
2022/02/10 05:36:36;;;;;;;10.93;7.20;;;10.80;88.30;;;;;;5056129;28;20028;-78
2022/02/10 05:54:38;;;;;;;13.77;8.38;;;10.80;88.30;;;;;;5063193;28;20029;-77
2022/02/10 06:02:32;;;;;;;13.82;7.97;;;10.80;88.40;;;;;;5063048;28;20029;-77
2022/02/10 06:48:53;;;;;;;12.23;8.27;;;10.80;88.00;;;;;;5072062;28;20090;-78
2022/02/10 06:56:51;;;;;;;15.07;8.43;;;10.80;88.00;;;;;;5071757;28;20036;-76
2022/02/10 07:04:49;;;;;;;15.13;9.25;;;10.80;88.00;;;;;;5074028;28;20032;-78
2022/02/10 08:26:31;;;;;;;13.20;10.27;;;10.80;88.30;;;;;;5051786;28;20036;-78
2022/02/10 08:50:43;;;;;;;15.93;11.18;;;10.80;88.40;;;;;;5073110;28;20086;-75
2022/02/10 09:06:35;;;;;;;14.65;11.48;;;10.80;88.40;;;;;;5073714;28;20056;-75
2022/02/10 09:14:48;;;;;;;15.45;11.35;;;10.80;88.50;;;;;;5073692;28;20036;-75
2022/02/10 09:59:58;;;;;;;15.57;12.43;;;10.80;88.70;;;;;;4971436;28;20551;-75
2022/02/10 10:02:35;;;;;;;16.15;13.25;;;10.80;88.70;;;;;;4971621;28;20503;-75
2022/02/10 10:05:11;;;;;;;16.50;12.70;;;10.80;88.70;;;;;;5029888;28;20451;-75
2022/02/10 10:15:44;;;;;;;15.35;12.68;;;10.80;88.80;;;;;;5072676;28;20048;-75
2022/02/10 10:21:30;;;;;;;14.75;11.50;;;10.80;88.70;;;;;;5072161;28;20539;-75
2022/02/10 10:52:21;;;;;;;11.05;7.97;;;10.80;88.40;;;;;;5072054;28;20024;-75
2022/02/10 10:54:58;;;;;;;12.27;7.88;;;10.80;88.40;;;;;;5071920;28;20031;-75
2022/02/10 10:57:29;;;;;;;9.70;6.85;;;10.80;88.40;;;;;;5053898;28;20086;-75
2022/02/10 11:42:11;;;;;;;5.97;3.67;;;10.80;88.20;;;;;;5071557;28;20068;-75
2022/02/10 14:15:24;;;;;;;4.63;2.10;;;10.80;87.70;;;;;;5072643;28;20039;-75
2022/02/10 14:18:04;;;;;;;4.45;2.10;;;10.80;87.70;;;;;;5054400;28;20024;-75
2022/02/10 14:23:18;;;;;;;5.28;2.03;;;10.80;87.70;;;;;;5072557;28;20071;-75
2022/02/10 14:25:56;;;;;;;4.80;2.05;;;10.80;87.70;;;;;;5072382;28;20020;-76
2022/02/10 14:28:23;;;;;;;4.68;2.10;;;10.80;87.60;;;;;;5072476;28;20017;-75
2022/02/10 14:30:52;;;;;;;6.60;2.63;;;10.80;87.60;;;;;;5063133;22;20045;-78
2022/02/10 14:33:24;;;;;;;4.50;2.00;;;10.80;87.60;;;;;;5034574;28;20025;-76
2022/02/10 14:38:34;;;;;;;5.00;2.17;;;10.80;87.60;;;;;;5053093;28;20274;-79
2022/02/10 15:22:03;;;;;;;6.93;2.47;;;10.80;87.50;;;;;;5044613;28;20513;-77
2022/02/10 15:46:41;;;;;;;6.45;1.98;;;10.80;87.40;;;;;;5055485;28;20024;-76
2022/02/10 15:56:57;;;;;;;7.53;2.40;;;10.70;87.40;;;;;;5055556;28;20032;-76
2022/02/10 16:18:43;;;;;;;4.57;1.98;;;10.80;87.40;;;;;;5055547;28;20098;-77
2022/02/10 16:21:11;;;;;;;5.82;2.03;;;10.80;87.50;;;;;;5036837;28;20049;-76
2022/02/10 16:23:36;;;;;;;7.18;2.38;;;10.80;87.40;;;;;;5054730;28;20100;-77
2022/02/10 16:28:35;;;;;;;8.90;2.90;;;10.80;87.40;;;;;;5054690;28;20017;-76
2022/02/10 16:31:02;;;;;;;6.43;2.60;;;10.80;87.50;;;;;;5036232;28;20036;-78
2022/02/10 16:33:31;;;;;;;7.47;2.80;;;10.70;87.30;;;;;;5036970;28;20031;-77
2022/02/10 16:35:58;;;;;;;6.35;2.30;;;10.80;87.30;;;;;;5052767;28;20025;-76
2022/02/10 16:38:24;;;;;;;11.65;2.65;;;10.80;87.00;;;;;;5035044;28;20028;-77
2022/02/10 16:40:49;;;;;;;10.27;2.90;;;10.70;85.30;;;;;;5035487;28;20531;-76
2022/02/10 16:43:16;;;;;;;11.38;2.63;;;10.70;85.60;;;;;;5016888;28;20494;-78
2022/02/10 16:45:41;;;;;;;11.85;3.08;;;10.70;85.10;;;;;;5053432;28;20021;-77
2022/02/10 16:48:07;;;;;;;10.00;2.60;;;10.70;85.40;;;;;;5035992;28;20028;-78
2022/02/10 16:50:34;;;;;;;9.50;3.10;;;10.70;85.70;;;;;;5054073;28;20013;-78
2022/02/10 16:53:04;;;;;;;9.25;2.42;;;10.80;86.00;;;;;;5036238;28;20110;-78
2022/02/10 16:55:50;;;;;;;8.98;2.40;;;10.80;86.30;;;;;;5054123;28;20025;-77
2022/02/10 17:14:03;;;;;;;8.80;2.40;;;10.70;85.30;;;;;;5056154;28;20078;-76
2022/02/10 17:14:33;;;;;;;7.18;2.33;;;10.70;86.10;;;;;;5054625;28;20079;-79
2022/02/10 17:20:11;;;;;;;8.60;2.65;;;10.70;86.40;;;;;;5055702;28;20024;-78
2022/02/10 17:25:26;;;;;;;6.72;2.53;;;10.70;86.70;;;;;;5053443;28;20048;-77
2022/02/10 17:27:57;;;;;;;8.20;2.40;;;10.70;86.70;;;;;;5054467;28;20031;-77
2022/02/10 17:44:03;;;;;;;13.35;2.65;;;10.90;87.20;;;;;;5055201;28;20040;-78
2022/02/10 17:46:21;;;;;;;11.30;2.47;;;11.00;87.30;;;;;;5055270;28;20393;-77
2022/02/10 17:54:11;;;;;;;9.20;2.38;;;11.10;88.70;;;;;;5057651;28;20028;-77
2022/02/10 17:56:38;;;;;;;10.98;2.50;;;11.10;88.70;;;;;;5039707;28;20021;-79
2022/02/10 17:59:04;;;;;;;7.28;2.35;;;11.20;88.50;;;;;;5040279;28;20035;-76
2022/02/10 18:01:30;;;;;;;12.23;2.65;;;11.20;88.80;;;;;;5039274;28;20029;-79
2022/02/10 18:03:56;;;;;;;11.18;2.30;;;11.20;89.00;;;;;;5039066;28;20025;-77
2022/02/10 18:06:24;;;;;;;10.98;2.58;;;11.30;89.20;;;;;;5039344;28;20166;-76
2022/02/10 18:14:26;;;;;;;9.48;2.38;;;11.40;90.00;;;;;;5075750;28;20039;-79
2022/02/10 18:16:56;;;;;;;11.23;2.30;;;11.50;90.00;;;;;;5057244;28;20512;-76
2022/02/10 18:19:29;;;;;;;10.55;2.40;;;11.50;90.10;;;;;;5057712;28;20074;-78
2022/02/10 18:38:25;;;;;;;8.32;2.13;;;12.00;92.00;;;;;;5049220;28;20056;-76
2022/02/10 19:08:05;;;;;;;13.52;2.25;;;12.50;93.60;;;;;;5048430;28;20072;-76
2022/02/10 19:10:24;;;;;;;9.27;2.90;;;12.50;93.40;;;;;;5056160;28;20127;-75
2022/02/10 19:12:55;;;;;;;12.70;2.20;;;12.50;93.70;;;;;;5057400;28;20530;-76
2022/02/10 19:15:38;;;;;;;12.10;2.25;;;12.60;93.70;;;;;;5039709;28;20449;-77
2022/02/10 19:18:09;;;;;;;12.18;2.70;;;12.60;93.60;;;;;;5039277;28;20462;-76
2022/02/10 19:20:36;;;;;;;8.85;2.70;;;12.60;93.80;;;;;;5039054;28;20051;-76
2022/02/10 19:23:03;;;;;;;13.43;2.90;;;12.60;93.50;;;;;;5056808;28;20265;-75
2022/02/10 19:25:30;;;;;;;12.82;2.90;;;12.60;93.60;;;;;;5048310;28;20017;-75
2022/02/10 19:27:56;;;;;;;11.18;2.72;;;12.60;93.60;;;;;;5056137;28;20021;-77
2022/02/10 19:30:24;;;;;;;11.95;2.60;;;12.60;93.50;;;;;;5055477;28;20094;-75
2022/02/10 19:32:55;;;;;;;11.95;3.20;;;12.70;93.50;;;;;;5057743;28;20029;-77
2022/02/10 19:35:23;;;;;;;13.70;2.90;;;12.70;93.60;;;;;;5058137;28;20104;-77
2022/02/10 19:37:55;;;;;;;11.38;2.95;;;12.70;93.50;;;;;;5047932;28;20036;-78
2022/02/10 19:40:22;;;;;;;9.75;2.45;;;12.70;93.30;;;;;;5057780;28;20075;-76
2022/02/10 19:42:48;;;;;;;12.75;2.47;;;12.70;93.30;;;;;;5040747;28;20474;-77
2022/02/10 19:45:15;;;;;;;13.82;2.60;;;12.70;93.20;;;;;;5058388;28;20036;-77
2022/02/10 19:47:41;;;;;;;15.30;2.90;;;12.70;93.10;;;;;;5058034;28;20021;-76
2022/02/10 19:50:12;;;;;;;12.50;2.75;;;12.70;93.00;;;;;;5039630;28;20120;-78
2022/02/10 19:52:40;;;;;;;9.73;2.38;;;12.70;92.90;;;;;;5040134;28;20437;-77
2022/02/10 19:55:10;;;;;;;14.35;2.75;;;12.70;92.70;;;;;;5040063;28;20036;-78
2022/02/10 19:57:38;;;;;;;11.93;2.75;;;12.70;92.70;;;;;;5057809;28;20033;-77
2022/02/10 20:00:11;;;;;;;8.32;2.95;;;12.60;93.10;;;;;;5039054;28;20049;-77
2022/02/10 20:02:37;;;;;;;12.05;2.80;;;12.50;93.00;;;;;;5044958;28;20048;-78
2022/02/10 20:05:04;;;;;;;14.00;3.00;;;12.50;93.00;;;;;;5037109;28;20062;-76
2022/02/10 20:07:32;;;;;;;11.85;2.75;;;12.40;93.10;;;;;;5018834;28;20029;-77
2022/02/10 20:09:57;;;;;;;7.97;2.30;;;12.30;93.00;;;;;;5036433;28;20021;-76
2022/02/10 20:12:23;;;;;;;11.30;2.55;;;12.30;93.00;;;;;;5036708;28;20108;-78
2022/02/10 20:14:51;;;;;;;9.00;2.58;;;12.30;92.90;;;;;;5018984;28;20029;-76
2022/02/10 20:17:17;;;;;;;9.77;2.60;;;12.30;92.80;;;;;;5036764;28;20023;-77
2022/02/10 20:19:43;;;;;;;8.55;2.63;;;12.20;92.60;;;;;;5032675;28;20040;-77
2022/02/10 20:22:12;;;;;;;11.23;2.92;;;12.20;92.50;;;;;;5038517;28;20029;-78
2022/02/10 20:24:38;;;;;;;8.70;2.65;;;12.20;92.50;;;;;;5038768;28;20020;-77
2022/02/10 20:27:05;;;;;;;11.05;2.40;;;12.20;92.50;;;;;;5038929;28;20113;-77
2022/02/10 20:29:30;;;;;;;7.32;2.63;;;12.20;92.30;;;;;;5056490;28;20053;-75
2022/02/10 20:31:56;;;;;;;9.02;2.70;;;12.20;92.30;;;;;;5038721;28;20036;-76
2022/02/10 20:34:23;;;;;;;11.73;2.92;;;12.20;92.40;;;;;;5075453;28;20033;-78
2022/02/10 20:36:49;;;;;;;12.55;2.90;;;12.10;92.10;;;;;;5058576;28;20595;-77
2022/02/10 20:39:22;;;;;;;7.80;2.15;;;12.10;91.90;;;;;;5075740;28;20032;-78
2022/02/10 20:41:52;;;;;;;8.15;2.42;;;12.10;92.00;;;;;;5058417;28;20020;-77
2022/02/10 20:44:18;;;;;;;7.13;2.38;;;12.10;91.90;;;;;;5076450;28;20448;-77
2022/02/10 20:46:45;;;;;;;9.00;2.40;;;12.10;91.80;;;;;;5076635;28;20048;-78
2022/02/10 20:49:16;;;;;;;7.72;2.60;;;12.00;91.70;;;;;;5057885;28;20016;-78
2022/02/10 20:51:49;;;;;;;10.13;2.95;;;12.00;91.70;;;;;;5103619;23;20060;-78
2022/02/10 20:54:15;;;;;;;15.52;3.10;;;12.00;91.70;;;;;;5036083;28;20075;-77
2022/02/10 20:56:40;;;;;;;9.48;2.70;;;12.00;91.40;;;;;;5038574;28;20024;-77
2022/02/10 21:02:32;;;;;;;8.93;2.50;;;12.00;91.30;;;;;;5050158;28;20040;-77
2022/02/10 21:05:23;;;;;;;5.68;2.20;;;12.00;91.30;;;;;;5053783;28;20067;-78
2022/02/10 21:07:53;;;;;;;7.18;2.70;;;12.00;91.10;;;;;;5074719;28;20021;-79
2022/02/10 21:10:22;;;;;;;7.18;3.03;;;12.00;91.10;;;;;;5068472;28;20020;-79
2022/02/10 21:12:48;;;;;;;8.68;2.92;;;12.00;91.00;;;;;;5074817;28;20023;-78
2022/02/10 21:15:18;;;;;;;9.38;2.85;;;12.00;90.90;;;;;;5056761;28;20028;-77
2022/02/10 21:17:45;;;;;;;8.30;2.70;;;11.90;90.90;;;;;;5055352;28;20485;-78
2022/02/10 21:20:11;;;;;;;7.28;2.50;;;11.90;91.00;;;;;;5073573;28;20037;-77
2022/02/10 21:22:41;;;;;;;6.15;2.58;;;11.90;90.80;;;;;;5055524;28;20025;-77
2022/02/10 21:25:23;;;;;;;7.15;2.50;;;11.90;90.80;;;;;;5071355;28;20473;-78
2022/02/10 21:27:51;;;;;;;6.38;2.40;;;11.90;90.60;;;;;;5073897;28;20024;-78
2022/02/10 21:30:18;;;;;;;9.27;2.83;;;11.90;90.70;;;;;;5055262;28;20017;-77
2022/02/10 21:32:49;;;;;;;6.20;2.58;;;11.90;90.70;;;;;;5055691;28;20020;-78
2022/02/10 21:35:40;;;;;;;9.80;3.10;;;11.90;90.50;;;;;;5055536;28;20032;-79
2022/02/10 21:44:15;;;;;;;7.70;2.78;;;11.80;90.50;;;;;;5073639;28;20016;-79
2022/02/10 21:54:36;;;;;;;7.15;3.00;;;11.80;90.60;;;;;;5073235;28;20534;-78
2022/02/10 22:05:26;;;;;;;7.47;2.90;;;11.80;90.30;;;;;;5053653;28;20040;-77
2022/02/10 22:20:16;;;;;;;5.88;2.63;;;11.70;90.20;;;;;;5056702;28;20017;-77
2022/02/10 22:23:03;;;;;;;6.20;2.65;;;11.70;90.20;;;;;;5053876;28;20029;-80
2022/02/10 22:25:29;;;;;;;5.70;3.00;;;11.70;90.10;;;;;;5035593;28;20100;-77
2022/02/10 22:27:59;;;;;;;7.60;2.90;;;11.70;90.10;;;;;;5035373;28;20108;-79
2022/02/10 22:30:43;;;;;;;5.72;2.90;;;11.70;90.10;;;;;;5038931;28;20008;-78
2022/02/10 22:33:28;;;;;;;5.63;2.30;;;11.70;90.10;;;;;;5073423;28;20028;-78
2022/02/10 22:35:54;;;;;;;6.07;2.72;;;11.70;90.00;;;;;;5055643;28;20020;-78
2022/02/10 22:38:21;;;;;;;6.75;2.83;;;11.70;90.10;;;;;;5054504;28;20062;-77
2022/02/10 22:41:32;;;;;;;7.15;2.67;;;11.70;90.00;;;;;;5054207;28;20056;-79
2022/02/10 22:43:40;;;;;;;5.55;2.65;;;11.70;90.00;;;;;;5065337;28;20031;-78
2022/02/10 22:46:07;;;;;;;7.05;2.88;;;11.70;90.00;;;;;;5067253;28;20454;-77
2022/02/10 22:48:33;;;;;;;7.28;2.70;;;11.70;90.00;;;;;;5036005;28;20366;-77
2022/02/10 22:51:00;;;;;;;6.43;2.55;;;11.70;89.90;;;;;;5042740;28;20021;-79
2022/02/10 22:53:26;;;;;;;6.03;2.85;;;11.70;89.90;;;;;;5053449;28;20074;-79
2022/02/10 22:55:52;;;;;;;6.43;2.97;;;11.60;89.80;;;;;;5035675;28;20020;-78
2022/02/10 22:58:18;;;;;;;4.90;2.40;;;11.60;89.60;;;;;;5035720;28;20028;-77
2022/02/10 23:00:47;;;;;;;6.30;2.80;;;11.60;89.70;;;;;;5053144;28;20457;-79
2022/02/10 23:03:20;;;;;;;5.25;2.50;;;11.60;90.00;;;;;;5040212;28;20025;-79
2022/02/10 23:05:47;;;;;;;6.72;2.63;;;11.60;89.50;;;;;;5057452;28;20039;-79
2022/02/10 23:08:13;;;;;;;4.88;2.65;;;11.60;89.50;;;;;;5039882;28;20021;-79
2022/02/10 23:10:42;;;;;;;6.28;2.50;;;11.60;89.50;;;;;;5056625;28;20028;-78
2022/02/10 23:13:09;;;;;;;6.35;2.55;;;11.60;89.40;;;;;;5040326;28;20047;-79
2022/02/10 23:15:38;;;;;;;7.57;3.17;;;11.60;89.40;;;;;;5057755;28;20036;-78
2022/02/10 23:18:08;;;;;;;6.75;2.63;;;11.60;89.30;;;;;;5039766;28;20024;-79
2022/02/10 23:20:34;;;;;;;6.13;2.77;;;11.60;89.40;;;;;;5039372;28;20025;-78
2022/02/10 23:23:00;;;;;;;6.63;2.75;;;11.60;89.40;;;;;;5040492;28;20021;-79
2022/02/10 23:25:27;;;;;;;6.63;2.70;;;11.60;89.30;;;;;;5040453;28;20024;-79
2022/02/10 23:27:53;;;;;;;5.78;2.60;;;11.50;89.30;;;;;;5067289;28;20397;-79
2022/02/10 23:30:23;;;;;;;5.15;2.70;;;11.60;89.30;;;;;;5056938;28;20109;-78
2022/02/10 23:32:49;;;;;;;6.45;3.08;;;11.60;89.40;;;;;;5057975;28;20029;-79
2022/02/10 23:35:53;;;;;;;5.32;2.70;;;11.70;89.40;;;;;;5052324;28;20025;-78
2022/02/10 23:38:00;;;;;;;6.43;2.55;;;11.60;89.30;;;;;;5073037;28;20469;-77
2022/02/10 23:40:33;;;;;;;5.85;2.75;;;11.60;89.30;;;;;;5055579;28;20025;-78
2022/02/10 23:42:58;;;;;;;5.88;2.60;;;11.50;89.00;;;;;;5059308;28;20369;-78
2022/02/10 23:45:27;;;;;;;6.63;2.63;;;11.50;89.10;;;;;;5039171;28;20013;-79
2022/02/10 23:47:53;;;;;;;5.40;2.78;;;11.60;89.00;;;;;;5055382;28;20457;-78
2022/02/10 23:50:25;;;;;;;5.55;2.65;;;11.50;89.00;;;;;;5056766;28;20523;-78
2022/02/10 23:52:57;;;;;;;5.53;2.55;;;11.50;89.00;;;;;;5039620;28;20033;-79
2022/02/10 23:55:30;;;;;;;6.13;2.47;;;11.50;89.10;;;;;;5039239;28;20028;-79
2022/02/10 23:58:08;;;;;;;5.88;2.75;;;11.50;89.10;;;;;;5056668;28;20082;-78
